Time;durP1;ratioP1;P1;durP2;ratioP2;P2;SDS_P1;SDS_P2;PMS_P1;PMS_P2;Temp;Humidity;BMP_temperature;BMP_pressure;BME280_temperature;BME280_humidity;BME280_pressure;Samples;Min_cycle;Max_cycle;Signal;HPM_P1;HPM_P2
2022/08/15 00:00:16;;;;;;;1.45;0.70;;;;;;;19.83;69.87;99943.22;5021675;28;20464;-88
2022/08/15 00:02:43;;;;;;;1.10;0.70;;;;;;;19.82;69.77;99940.78;5021649;28;20404;-88
2022/08/15 00:05:13;;;;;;;1.35;0.60;;;;;;;19.88;70.29;99934.59;5004502;28;20493;-89
2022/08/15 00:07:39;;;;;;;1.17;0.50;;;;;;;19.88;70.13;99924.03;5014557;28;20030;-90
2022/08/15 00:10:06;;;;;;;1.63;0.70;;;;;;;19.88;70.50;99929.31;5017611;28;20044;-87
2022/08/15 00:12:32;;;;;;;2.15;0.75;;;;;;;19.92;69.41;99921.75;5013954;28;20048;-88
2022/08/15 00:14:57;;;;;;;1.30;0.80;;;;;;;19.96;69.05;99918.47;5024949;28;20029;-87
2022/08/15 00:17:23;;;;;;;4.35;1.10;;;;;;;20.02;68.36;99922.88;5024270;28;20447;-88
2022/08/15 00:19:49;;;;;;;2.95;0.98;;;;;;;20.04;69.07;99914.72;5013824;28;20045;-88
2022/08/15 00:22:17;;;;;;;1.85;0.50;;;;;;;19.98;69.04;99916.41;5022519;28;20128;-89
2022/08/15 00:24:44;;;;;;;2.35;0.50;;;;;;;20.02;67.76;99922.88;5020883;28;20120;-88
2022/08/15 00:27:10;;;;;;;2.20;0.60;;;;;;;20.11;66.56;99918.13;5026165;28;20030;-89
2022/08/15 00:29:36;;;;;;;1.80;0.50;;;;;;;20.18;65.14;99918.84;5024339;28;20132;-88
2022/08/15 00:32:05;;;;;;;2.00;0.60;;;;;;;20.18;65.27;99922.31;5016812;28;20037;-88
2022/08/15 00:34:41;;;;;;;3.50;0.50;;;;;;;20.19;66.30;99926.56;5016752;28;20041;-87
2022/08/15 00:37:06;;;;;;;;;;;;;;;20.07;67.67;99928.31;5011145;28;20083;-87
2022/08/15 00:39:32;;;;;;;1.63;0.68;;;;;;;19.98;70.07;99921.69;5022587;28;19921;-89
2022/08/15 00:42:00;;;;;;;0.98;0.50;;;;;;;19.92;69.21;99911.19;5023559;28;20534;-90
2022/08/15 00:44:41;;;;;;;3.22;0.60;;;;;;;19.92;68.22;99912.00;5027888;28;20026;-90
2022/08/15 00:47:10;;;;;;;1.08;0.57;;;;;;;19.97;68.17;99914.78;5009200;28;20429;-89
2022/08/15 00:49:36;;;;;;;2.65;0.68;;;;;;;19.93;68.74;99916.25;5014577;28;20036;-92
2022/08/15 00:52:21;;;;;;;2.10;0.93;;;;;;;19.82;69.32;99907.22;5010446;28;20037;-87
2022/08/15 00:54:52;;;;;;;3.88;0.70;;;;;;;19.80;68.78;99913.75;5005093;28;20093;-85
2022/08/15 00:57:27;;;;;;;1.13;0.57;;;;;;;19.80;68.76;99917.22;5017370;28;20056;-87
2022/08/15 00:59:55;;;;;;;;;;;;;;;19.74;68.53;99904.88;5014476;28;20036;-91
2022/08/15 01:02:27;;;;;;;2.88;0.70;;;;;;;19.77;69.41;99906.25;4979362;28;20048;-92
2022/08/15 01:04:52;;;;;;;1.55;0.80;;;;;;;19.80;69.18;99905.84;5011411;28;20042;-92
2022/08/15 01:07:19;;;;;;;2.58;0.60;;;;;;;19.79;68.28;99904.22;5014945;28;20030;-89
2022/08/15 01:09:45;;;;;;;3.00;0.65;;;;;;;19.80;68.22;99908.47;5014680;28;20041;-90
2022/08/15 01:12:23;;;;;;;1.35;0.60;;;;;;;19.75;67.93;99900.38;4992818;28;20397;-90
2022/08/15 01:14:55;;;;;;;3.00;0.63;;;;;;;19.75;67.74;99895.09;5000266;28;20374;-92
2022/08/15 01:17:22;;;;;;;0.82;0.55;;;;;;;19.77;67.90;99898.34;5014812;28;20034;-90
2022/08/15 01:20:12;;;;;;;4.60;0.75;;;;;;;19.73;67.03;99900.59;4994838;28;20072;-89
2022/08/15 01:22:59;;;;;;;3.78;0.55;;;;;;;19.73;67.90;99890.03;5003736;28;20666;-90
2022/08/15 01:25:27;;;;;;;1.20;0.70;;;;;;;19.71;67.93;99889.44;5010211;28;20053;-90
2022/08/15 01:28:01;;;;;;;2.50;0.80;;;;;;;19.65;68.53;99887.66;5009357;28;20396;-90
2022/08/15 01:30:31;;;;;;;1.98;0.90;;;;;;;19.64;68.94;99883.41;4990106;28;20548;-88
2022/08/15 01:32:58;;;;;;;2.65;0.47;;;;;;;19.62;69.23;99882.81;5003013;28;20030;-90
2022/08/15 01:35:24;;;;;;;0.70;0.43;;;;;;;19.59;69.50;99879.78;4993785;28;20045;-90
2022/08/15 01:37:51;;;;;;;3.67;0.82;;;;;;;19.55;68.82;99876.78;5009637;28;20068;-89
2022/08/15 01:40:50;;;;;;;4.57;0.60;;;;;;;19.51;68.19;99868.47;4988296;28;20141;-89
2022/08/15 01:43:21;;;;;;;1.30;0.77;;;;;;;19.53;68.42;99870.91;5005575;28;20041;-90
2022/08/15 01:45:47;;;;;;;1.35;0.70;;;;;;;19.54;68.08;99872.53;4989775;28;20034;-90
2022/08/15 01:48:27;;;;;;;1.67;0.82;;;;;;;19.53;68.50;99871.72;4997677;28;20042;-90
2022/08/15 01:51:00;;;;;;;2.28;0.70;;;;;;;19.52;69.20;99874.56;5009520;28;20038;-90
2022/08/15 01:53:32;;;;;;;2.72;0.70;;;;;;;19.39;68.99;99874.63;4991916;28;20551;-88
2022/08/15 01:56:16;;;;;;;1.60;0.88;;;;;;;19.34;68.79;99875.31;4996365;28;20030;-90
2022/08/15 01:58:43;;;;;;;1.98;0.52;;;;;;;19.40;69.02;99876.25;5049746;28;20037;-87
2022/08/15 02:01:18;;;;;;;1.00;0.70;;;;;;;19.41;68.28;99870.75;5047293;28;20044;-89
2022/08/15 02:03:46;;;;;;;1.88;0.60;;;;;;;19.40;68.69;99868.34;5046016;28;20044;-88
2022/08/15 02:06:25;;;;;;;1.50;0.40;;;;;;;19.33;68.72;99876.34;5041497;28;20037;-89
2022/08/15 02:08:55;;;;;;;3.08;0.52;;;;;;;19.27;69.64;99871.91;5018519;28;20366;-89
2022/08/15 02:11:24;;;;;;;3.13;0.60;;;;;;;19.17;70.12;99868.94;5029259;28;20493;-91
2022/08/15 02:13:54;;;;;;;2.88;0.80;;;;;;;19.16;69.99;99864.69;5008595;28;20033;-90
2022/08/15 02:16:21;;;;;;;2.45;1.15;;;;;;;19.17;69.96;99874.22;5001974;28;20060;-91
2022/08/15 02:18:47;;;;;;;0.80;0.55;;;;;;;19.22;69.38;99874.38;5025125;28;20052;-88
2022/08/15 02:21:20;;;;;;;3.58;1.08;;;;;;;19.26;69.21;99862.38;5013895;28;20088;-89
2022/08/15 02:23:48;;;;;;;2.97;0.68;;;;;;;19.25;69.54;99859.94;5025663;28;20029;-90
2022/08/15 02:26:14;;;;;;;0.90;0.60;;;;;;;19.16;69.81;99869.97;5007559;28;20049;-88
2022/08/15 02:28:41;;;;;;;1.35;0.50;;;;;;;19.10;70.00;99876.09;5025145;28;20079;-87
2022/08/15 02:31:15;;;;;;;1.70;0.70;;;;;;;19.03;71.55;99870.84;5022892;28;20030;-88
2022/08/15 02:33:48;;;;;;;2.35;0.68;;;;;;;18.93;71.14;99869.72;5004096;28;20442;-89
2022/08/15 02:36:16;;;;;;;2.75;0.60;;;;;;;18.92;70.69;99870.72;5029595;28;20033;-87
2022/08/15 02:38:44;;;;;;;1.00;0.65;;;;;;;18.94;69.94;99876.59;5015133;28;20073;-88
2022/08/15 02:41:11;;;;;;;2.05;0.77;;;;;;;18.98;69.15;99864.59;5022963;28;20041;-89
2022/08/15 02:43:43;;;;;;;2.33;0.80;;;;;;;18.98;69.64;99867.25;5021620;28;20121;-89
2022/08/15 02:46:09;;;;;;;1.35;0.70;;;;;;;18.87;70.27;99868.75;5026189;28;20117;-89
2022/08/15 02:48:35;;;;;;;2.60;0.77;;;;;;;18.82;69.79;99874.66;5019323;28;20045;-88
2022/08/15 02:51:01;;;;;;;0.95;0.60;;;;;;;18.95;68.92;99870.31;5014530;28;20037;-89
2022/08/15 02:53:27;;;;;;;2.13;0.90;;;;;;;19.01;68.51;99866.81;5012968;28;20041;-89
2022/08/15 02:55:52;;;;;;;4.50;0.80;;;;;;;19.03;68.18;99859.50;5011982;28;20044;-89
2022/08/15 02:58:18;;;;;;;1.25;0.55;;;;;;;19.06;67.91;99857.22;5026286;28;20030;-91
2022/08/15 03:00:45;;;;;;;1.35;0.60;;;;;;;19.09;67.62;99853.34;5024420;28;20049;-87
2022/08/15 03:03:14;;;;;;;2.15;0.70;;;;;;;19.13;67.68;99854.56;5004487;28;20087;-88
2022/08/15 03:05:47;;;;;;;3.15;0.70;;;;;;;19.10;66.46;99853.16;5006632;28;20047;-88
2022/08/15 03:08:13;;;;;;;2.22;0.85;;;;;;;19.11;67.21;99846.03;5038561;28;20086;-89
2022/08/15 03:10:39;;;;;;;1.67;0.80;;;;;;;19.04;67.69;99855.81;5029672;28;20076;-90
2022/08/15 03:13:08;;;;;;;1.35;0.50;;;;;;;19.03;68.40;99851.56;5008664;28;20171;-90
2022/08/15 03:15:47;;;;;;;2.08;0.55;;;;;;;18.98;68.93;99854.03;5013703;28;20041;-90
2022/08/15 03:18:14;;;;;;;1.35;0.60;;;;;;;18.92;69.98;99846.97;5007212;28;20038;-90
2022/08/15 03:20:41;;;;;;;1.13;0.65;;;;;;;18.88;70.60;99843.97;5013936;28;20050;-89
2022/08/15 03:23:07;;;;;;;1.38;0.60;;;;;;;18.83;70.26;99854.38;5014752;28;20044;-89
2022/08/15 03:25:39;;;;;;;1.30;0.75;;;;;;;18.79;70.83;99846.06;5023438;28;20042;-87
2022/08/15 03:28:05;;;;;;;1.20;0.60;;;;;;;18.71;71.21;99845.50;5024286;28;20386;-90
2022/08/15 03:30:31;;;;;;;1.63;0.70;;;;;;;18.70;71.13;99839.41;5024443;28;20038;-90
2022/08/15 03:32:58;;;;;;;1.05;0.70;;;;;;;18.71;71.18;99850.78;5006590;28;20038;-88
2022/08/15 03:35:28;;;;;;;2.20;0.52;;;;;;;18.74;71.31;99850.34;5015155;28;20026;-89
2022/08/15 03:37:55;;;;;;;2.67;0.88;;;;;;;18.73;71.53;99849.53;5024623;28;20120;-88
2022/08/15 03:40:20;;;;;;;1.08;0.52;;;;;;;18.74;71.25;99861.72;5027962;28;20037;-89
2022/08/15 03:42:53;;;;;;;1.60;0.60;;;;;;;18.69;70.85;99855.47;5007745;28;20549;-89
2022/08/15 03:45:21;;;;;;;1.50;0.57;;;;;;;18.69;70.56;99847.53;5022166;28;20021;-92
2022/08/15 03:47:47;;;;;;;1.63;0.77;;;;;;;18.71;70.56;99850.78;5021810;28;20034;-90
2022/08/15 03:50:13;;;;;;;1.92;0.70;;;;;;;18.69;69.79;99858.09;5007021;28;20051;-92
2022/08/15 03:53:02;;;;;;;1.30;0.60;;;;;;;18.64;69.38;99864.00;5017221;28;20370;-91
2022/08/15 03:55:31;;;;;;;2.65;0.70;;;;;;;18.64;70.21;99864.00;5025465;28;20120;-91
2022/08/15 03:57:58;;;;;;;3.75;1.00;;;;;;;18.67;69.99;99860.94;5003718;28;20041;-91
2022/08/15 04:00:30;;;;;;;3.17;0.73;;;;;;;18.65;69.60;99862.97;5009496;28;20030;-93
2022/08/15 04:03:23;;;;;;;1.20;0.68;;;;;;;18.66;70.37;99869.06;4995700;28;20497;-86
2022/08/15 04:05:51;;;;;;;3.08;0.70;;;;;;;18.65;71.06;99862.97;5015191;28;20037;-91
2022/08/15 04:08:22;;;;;;;4.32;0.90;;;;;;;18.65;70.71;99862.97;5005676;28;20509;-89
2022/08/15 04:10:51;;;;;;;3.33;0.68;;;;;;;18.65;70.19;99860.34;5011542;28;20084;-92
2022/08/15 04:13:25;;;;;;;0.90;0.50;;;;;;;18.70;70.00;99860.53;5010283;28;20026;-90
2022/08/15 04:15:53;;;;;;;2.67;0.50;;;;;;;18.76;69.06;99856.22;5027516;28;20149;-90
2022/08/15 04:18:20;;;;;;;3.42;0.93;;;;;;;18.81;68.00;99857.22;5000469;28;20057;-90
2022/08/15 04:20:46;;;;;;;0.82;0.45;;;;;;;18.87;67.11;99851.09;5001620;28;20041;-90
2022/08/15 04:23:11;;;;;;;1.73;0.70;;;;;;;18.90;66.87;99858.56;5009761;28;20037;-92
2022/08/15 04:25:40;;;;;;;2.05;0.50;;;;;;;18.89;67.07;99849.03;5026489;28;20038;-95
2022/08/15 04:28:07;;;;;;;0.95;0.45;;;;;;;18.90;67.42;99848.00;5009161;28;20069;-88
2022/08/15 04:30:39;;;;;;;0.70;0.52;;;;;;;18.89;68.09;99856.16;5013831;28;20042;-90
2022/08/15 04:33:09;;;;;;;1.02;0.50;;;;;;;18.86;68.85;99854.75;5009095;28;20171;-90
2022/08/15 04:35:43;;;;;;;2.67;0.60;;;;;;;18.85;69.04;99850.50;5006749;28;20033;-88
2022/08/15 04:38:09;;;;;;;1.70;0.60;;;;;;;18.89;69.71;99853.50;5024144;28;20033;-89
2022/08/15 04:40:35;;;;;;;2.13;0.55;;;;;;;18.88;70.13;99858.00;5006637;28;20038;-86
2022/08/15 04:43:00;;;;;;;1.23;0.85;;;;;;;18.83;70.85;99855.19;5012080;28;20021;-89
2022/08/15 04:45:28;;;;;;;1.25;0.50;;;;;;;18.84;70.52;99856.78;5007059;28;20034;-90
2022/08/15 04:47:54;;;;;;;2.05;0.52;;;;;;;18.88;70.96;99857.19;5008376;28;20026;-89
2022/08/15 04:50:20;;;;;;;0.80;0.47;;;;;;;18.87;71.48;99851.09;5000568;28;20038;-90
2022/08/15 04:52:54;;;;;;;6.63;0.85;;;;;;;18.86;71.73;99861.84;5004175;28;20568;-89
2022/08/15 04:55:21;;;;;;;4.50;1.27;;;;;;;18.84;72.10;99862.06;4993849;28;20596;-89
2022/08/15 04:57:47;;;;;;;4.30;0.80;;;;;;;18.80;72.67;99852.97;5024328;28;20041;-88
2022/08/15 05:00:16;;;;;;;1.75;0.63;;;;;;;18.81;73.12;99854.56;5013248;28;20048;-90
2022/08/15 05:02:41;;;;;;;2.53;0.65;;;;;;;18.75;73.08;99858.06;5023718;28;20073;-90
2022/08/15 05:05:09;;;;;;;2.05;0.77;;;;;;;18.73;72.70;99859.28;5030307;28;20388;-89
2022/08/15 05:07:35;;;;;;;2.50;0.50;;;;;;;18.74;72.44;99850.34;5015172;28;20436;-90
2022/08/15 05:10:04;;;;;;;1.67;0.73;;;;;;;18.76;72.36;99858.88;5029639;28;20033;-90
2022/08/15 05:12:30;;;;;;;1.20;0.60;;;;;;;18.81;71.96;99859.84;5014051;28;20034;-91
2022/08/15 05:14:57;;;;;;;1.10;0.63;;;;;;;18.84;71.64;99862.06;5029105;28;20416;-88
2022/08/15 05:17:23;;;;;;;2.65;0.68;;;;;;;18.92;70.47;99862.81;5030467;28;20044;-88
2022/08/15 05:19:48;;;;;;;1.13;0.60;;;;;;;18.97;69.72;99861.16;5029712;28;20041;-92
2022/08/15 05:22:27;;;;;;;0.70;0.60;;;;;;;19.06;68.65;99862.50;5024287;28;20040;-89
2022/08/15 05:24:52;;;;;;;1.58;0.70;;;;;;;19.15;67.92;99868.34;5026511;28;20040;-89
2022/08/15 05:27:18;;;;;;;1.67;0.50;;;;;;;19.15;68.00;99869.16;5010099;28;20037;-90
2022/08/15 05:29:43;;;;;;;6.22;0.60;;;;;;;19.14;68.04;99867.53;5035698;28;20053;-86
2022/08/15 05:32:09;;;;;;;1.90;0.93;;;;;;;19.17;68.35;99869.75;5043548;28;20107;-88
2022/08/15 05:34:34;;;;;;;1.52;0.50;;;;;;;19.15;68.46;99869.16;5041277;28;20040;-88
2022/08/15 05:37:01;;;;;;;3.00;0.82;;;;;;;19.15;68.53;99869.16;5041350;28;20044;-84
2022/08/15 05:39:30;;;;;;;0.93;0.60;;;;;;;19.14;69.40;99869.38;5031562;28;20067;-85
2022/08/15 05:42:17;;;;;;;1.15;0.65;;;;;;;19.13;69.72;99878.31;5033477;28;20050;-89
2022/08/15 05:44:48;;;;;;;2.03;0.70;;;;;;;19.12;70.16;99872.22;5043627;28;20037;-89
2022/08/15 05:47:40;;;;;;;0.82;0.50;;;;;;;19.13;70.07;99871.19;5015593;28;21871;-89
2022/08/15 05:50:19;;;;;;;1.08;0.70;;;;;;;19.16;70.14;99876.06;5025636;28;20164;-89
2022/08/15 05:53:32;;;;;;;0.82;0.50;;;;;;;19.16;70.93;99868.13;5013954;28;20053;-89
2022/08/15 05:56:10;;;;;;;1.02;0.65;;;;;;;19.19;70.63;99870.34;4983788;28;20055;-90
2022/08/15 05:58:44;;;;;;;0.93;0.63;;;;;;;19.21;70.58;99873.59;5014125;28;20501;-91
2022/08/15 06:01:16;;;;;;;1.30;0.77;;;;;;;19.28;70.46;99873.53;5025016;28;20497;-90
2022/08/15 06:04:28;;;;;;;1.58;0.57;;;;;;;19.31;69.75;99870.47;5023901;28;20036;-88
2022/08/15 06:06:55;;;;;;;3.42;0.60;;;;;;;19.37;69.94;99877.53;4974540;28;20046;-90
2022/08/15 06:09:27;;;;;;;1.30;0.70;;;;;;;19.41;70.09;99873.41;5025199;28;20039;-91
2022/08/15 06:11:55;;;;;;;2.17;0.60;;;;;;;19.44;69.87;99861.59;5007484;28;20052;-90
2022/08/15 06:14:31;;;;;;;0.80;0.47;;;;;;;19.50;69.32;99876.59;5028011;28;21472;-91
2022/08/15 06:17:04;;;;;;;3.17;0.65;;;;;;;19.58;69.39;99870.25;5025568;28;20044;-91
2022/08/15 06:19:39;;;;;;;3.58;0.75;;;;;;;19.74;68.54;99867.06;5016134;28;20033;-91
2022/08/15 06:22:21;;;;;;;2.80;0.60;;;;;;;19.93;68.49;99865.22;5007528;28;20044;-90
2022/08/15 06:25:28;;;;;;;3.40;0.93;;;;;;;20.08;67.18;99861.19;5013212;28;20079;-88
2022/08/15 06:28:16;;;;;;;2.75;0.77;;;;;;;20.24;67.04;99859.78;4968624;28;20410;-88
2022/08/15 06:30:48;;;;;;;1.33;0.65;;;;;;;20.36;67.35;99863.28;4966098;28;20034;-90
2022/08/15 06:33:36;;;;;;;1.75;0.60;;;;;;;20.49;66.00;99863.16;4955431;28;20047;-92
2022/08/15 06:36:23;;;;;;;4.13;0.88;;;;;;;20.65;65.10;99853.78;4964656;28;20030;-90
2022/08/15 06:39:04;;;;;;;1.70;0.70;;;;;;;20.83;65.68;99866.94;4969240;28;20133;-89
2022/08/15 06:41:51;;;;;;;2.45;0.70;;;;;;;20.97;64.26;99872.06;4968572;28;20091;-91
2022/08/15 06:44:19;;;;;;;1.40;0.63;;;;;;;21.07;64.60;99867.81;4968677;28;20466;-90
2022/08/15 06:46:46;;;;;;;1.67;0.50;;;;;;;21.14;64.09;99870.38;4950072;28;20042;-89
2022/08/15 06:49:13;;;;;;;5.57;0.60;;;;;;;21.26;63.89;99876.53;4967567;28;20102;-89
2022/08/15 06:51:41;;;;;;;1.02;0.55;;;;;;;21.41;63.35;99876.06;4950345;28;20050;-90
2022/08/15 06:54:14;;;;;;;0.82;0.50;;;;;;;21.57;63.34;99871.94;4952592;28;20125;-91
2022/08/15 06:57:01;;;;;;;1.27;0.43;;;;;;;21.71;61.85;99868.03;4965497;28;20598;-90
2022/08/15 06:59:44;;;;;;;2.53;0.60;;;;;;;21.88;61.63;99868.91;4965431;28;20041;-90
2022/08/15 07:02:30;;;;;;;1.63;0.60;;;;;;;22.02;59.44;99870.31;4948741;28;20146;-93
2022/08/15 07:05:11;;;;;;;1.23;0.70;;;;;;;22.13;58.27;99882.75;4999736;28;20041;-90
2022/08/15 07:08:20;;;;;;;1.77;0.50;;;;;;;22.29;58.68;99880.38;5024488;28;20041;-90
2022/08/15 07:10:52;;;;;;;0.52;0.30;;;;;;;22.43;59.31;99873.78;5004104;28;20037;-92
2022/08/15 07:13:24;;;;;;;1.83;0.60;;;;;;;22.63;58.50;99870.72;5022142;28;20030;-90
2022/08/15 07:15:57;;;;;;;1.38;0.50;;;;;;;22.75;57.39;99863.47;5012807;28;20538;-94
2022/08/15 07:18:50;;;;;;;0.90;0.40;;;;;;;22.88;56.37;99867.72;5021524;28;20033;-90
2022/08/15 07:21:22;;;;;;;1.05;0.40;;;;;;;23.01;56.05;99868.22;5010758;28;20060;-91
2022/08/15 07:24:09;;;;;;;0.75;0.40;;;;;;;23.08;55.34;99860.09;5025586;28;20040;-89
2022/08/15 07:27:06;;;;;;;1.48;0.50;;;;;;;23.20;55.46;99862.66;5008793;28;20041;-88
2022/08/15 07:29:41;;;;;;;1.40;0.40;;;;;;;23.39;55.57;99858.72;5014115;28;21251;-91
2022/08/15 07:32:11;;;;;;;0.68;0.45;;;;;;;23.61;56.70;99867.59;5025925;28;20026;-91
2022/08/15 07:34:53;;;;;;;1.00;0.50;;;;;;;23.72;54.43;99857.88;5023426;28;20056;-90
2022/08/15 07:37:20;;;;;;;1.05;0.43;;;;;;;23.85;56.71;99860.19;5009779;28;20087;-88
2022/08/15 07:39:57;;;;;;;1.42;0.45;;;;;;;23.93;53.04;99859.78;5031121;28;20029;-91
2022/08/15 07:42:22;;;;;;;2.58;1.10;;;;;;;24.05;54.90;99859.66;5005810;28;20516;-89
2022/08/15 07:44:59;;;;;;;1.85;0.50;;;;;;;24.24;52.77;99860.94;5006114;28;20057;-88
2022/08/15 07:47:31;;;;;;;1.13;0.40;;;;;;;24.45;52.72;99859.34;5025944;28;20543;-86
2022/08/15 07:50:04;;;;;;;1.38;0.55;;;;;;;24.55;52.93;99856.81;5010873;28;20455;-92
2022/08/15 07:52:29;;;;;;;2.05;0.63;;;;;;;24.72;52.06;99854.81;5011317;28;20026;-89
2022/08/15 07:54:58;;;;;;;1.63;0.43;;;;;;;24.83;51.71;99854.94;5014475;28;20474;-90
2022/08/15 07:57:26;;;;;;;1.10;0.50;;;;;;;24.91;51.28;99860.59;4998795;28;20149;-89
2022/08/15 08:00:16;;;;;;;1.83;0.40;;;;;;;25.12;51.90;99856.25;5022381;28;20126;-88
2022/08/15 08:03:23;;;;;;;1.02;0.50;;;;;;;25.28;47.04;99855.31;5019722;28;20119;-89
2022/08/15 08:06:17;;;;;;;1.45;0.40;;;;;;;25.48;46.81;99845.88;5021381;28;20033;-90
2022/08/15 08:09:14;;;;;;;4.82;1.02;;;;;;;25.55;45.00;99855.22;5010076;28;20039;-88
2022/08/15 08:11:50;;;;;;;2.63;0.40;;;;;;;25.75;44.31;99844.72;4988530;28;20048;-89
2022/08/15 08:14:56;;;;;;;1.35;0.50;;;;;;;25.74;43.40;99842.31;5004924;28;20033;-90
2022/08/15 08:17:41;;;;;;;1.63;0.40;;;;;;;25.73;45.63;99843.38;5027958;28;20040;-89
2022/08/15 08:20:33;;;;;;;1.65;0.50;;;;;;;26.00;45.75;99845.88;5012902;28;20115;-90
2022/08/15 08:23:21;;;;;;;2.30;0.50;;;;;;;26.23;44.99;99848.09;5027483;28;20064;-88
2022/08/15 08:26:09;;;;;;;1.35;0.40;;;;;;;26.14;45.57;99847.00;5025641;28;20038;-93
2022/08/15 08:29:03;;;;;;;0.90;0.50;;;;;;;26.23;44.41;99847.31;5018794;28;20096;-89
2022/08/15 08:32:02;;;;;;;1.63;0.50;;;;;;;26.24;41.62;99854.25;5011489;28;20033;-86
2022/08/15 08:34:41;;;;;;;1.05;0.50;;;;;;;26.27;43.85;99853.72;5015121;28;20099;-90
2022/08/15 08:37:15;;;;;;;1.10;0.40;;;;;;;26.22;45.21;99853.72;5014533;28;20025;-90
2022/08/15 08:43:02;;;;;;;3.20;0.60;;;;;;;25.79;42.99;99855.66;5025457;28;20394;-87
2022/08/15 08:45:41;;;;;;;0.80;0.40;;;;;;;25.84;45.40;99841.56;5021994;28;20030;-89
2022/08/15 08:48:12;;;;;;;2.47;0.50;;;;;;;25.90;46.37;99857.34;5029727;28;20026;-89
2022/08/15 08:51:00;;;;;;;2.28;0.68;;;;;;;25.96;43.32;99858.97;5031676;28;20056;-87
2022/08/15 08:53:54;;;;;;;2.38;0.50;;;;;;;25.86;45.02;99855.44;5009639;28;20032;-89
2022/08/15 08:56:28;;;;;;;3.08;0.52;;;;;;;25.92;44.54;99865.88;5023268;28;20053;-88
2022/08/15 08:59:19;;;;;;;3.33;0.60;;;;;;;25.95;43.61;99864.56;5027222;28;20102;-89
2022/08/15 09:01:52;;;;;;;0.82;0.50;;;;;;;25.86;45.27;99864.25;5032840;28;20084;-88
2022/08/15 09:04:24;;;;;;;2.05;0.50;;;;;;;25.83;45.47;99866.63;5028125;28;20056;-89
2022/08/15 09:06:52;;;;;;;7.30;0.63;;;;;;;25.79;45.90;99863.69;5039082;28;20033;-85
2022/08/15 09:09:32;;;;;;;1.88;0.40;;;;;;;25.81;45.07;99868.75;5047111;28;20024;-85
2022/08/15 09:15:24;;;;;;;1.00;0.40;;;;;;;25.94;45.45;99879.78;4972752;28;20053;-88
2022/08/15 09:18:01;;;;;;;1.88;0.40;;;;;;;26.02;45.19;99881.13;5013523;28;20044;-88
2022/08/15 09:20:36;;;;;;;1.73;0.50;;;;;;;26.16;44.02;99890.25;5013887;28;20060;-84
2022/08/15 09:23:20;;;;;;;2.35;0.50;;;;;;;26.22;44.59;99896.44;5010481;28;20439;-87
2022/08/15 09:26:07;;;;;;;3.97;0.67;;;;;;;26.27;46.95;99901.78;5029178;28;20060;-87
2022/08/15 09:28:37;;;;;;;1.60;0.47;;;;;;;26.28;47.66;99904.22;5027681;28;20038;-85
2022/08/15 09:31:23;;;;;;;2.50;0.80;;;;;;;26.27;48.13;99907.13;5026892;28;20029;-87
2022/08/15 09:33:48;;;;;;;1.13;0.50;;;;;;;26.22;48.83;99907.13;5028262;28;20026;-85
2022/08/15 09:36:22;;;;;;;3.78;0.65;;;;;;;26.18;48.81;99906.81;5030367;28;20037;-86
2022/08/15 09:38:55;;;;;;;1.10;0.57;;;;;;;26.24;48.43;99904.97;5012250;28;20088;-87
2022/08/15 09:41:39;;;;;;;0.88;0.73;;;;;;;26.30;48.60;99911.94;5026314;28;20030;-87
2022/08/15 09:44:20;;;;;;;2.50;0.50;;;;;;;26.33;48.06;99898.13;5026050;28;20033;-87
2022/08/15 09:47:00;;;;;;;1.40;0.70;;;;;;;26.24;47.61;99904.97;5030077;28;20087;-87
2022/08/15 09:49:26;;;;;;;1.38;0.60;;;;;;;26.21;48.31;99905.50;5029730;28;20490;-86
2022/08/15 09:52:05;;;;;;;2.65;0.60;;;;;;;26.19;49.30;99905.75;5011786;28;20029;-85
2022/08/15 09:54:42;;;;;;;1.10;0.95;;;;;;;26.22;49.22;99907.13;5032287;28;20076;-83
2022/08/15 09:57:19;;;;;;;2.10;0.60;;;;;;;26.19;46.57;99905.75;5029196;28;20048;-86
2022/08/15 09:59:55;;;;;;;1.23;0.85;;;;;;;26.31;48.30;99906.38;5028549;28;20029;-86
2022/08/15 10:02:27;;;;;;;1.88;0.77;;;;;;;26.48;48.02;99910.69;5028910;28;20060;-89
2022/08/15 10:04:55;;;;;;;1.40;0.75;;;;;;;26.55;48.42;99912.06;5021776;28;20036;-86
2022/08/15 10:07:40;;;;;;;1.77;1.08;;;;;;;26.61;47.33;99910.19;5026736;28;20168;-88
2022/08/15 10:10:32;;;;;;;1.55;0.93;;;;;;;26.47;49.02;99909.88;5011380;28;20029;-84
2022/08/15 10:13:28;;;;;;;2.05;0.90;;;;;;;26.58;50.04;99913.41;5014487;28;20374;-89
2022/08/15 10:15:55;;;;;;;1.65;0.70;;;;;;;26.69;50.42;99902.47;5028373;28;20519;-85
2022/08/15 10:18:25;;;;;;;1.33;0.90;;;;;;;26.74;49.48;99897.16;5024474;28;20503;-86
2022/08/15 10:20:56;;;;;;;1.30;1.05;;;;;;;26.61;49.67;99884.28;5028842;28;20504;-88
2022/08/15 10:23:41;;;;;;;1.83;1.02;;;;;;;26.50;48.82;99890.66;5029160;28;20033;-84
2022/08/15 10:26:28;;;;;;;2.33;1.60;;;;;;;26.36;48.70;99893.06;5027258;28;20078;-86
2022/08/15 10:29:27;;;;;;;1.65;1.10;;;;;;;26.40;49.28;99899.47;5024762;28;20034;-87
2022/08/15 10:31:59;;;;;;;2.28;0.98;;;;;;;26.60;50.43;99897.91;5025767;28;20488;-89
2022/08/15 10:34:37;;;;;;;1.63;0.98;;;;;;;26.69;48.42;99891.00;5029704;28;20049;-85
2022/08/15 10:37:15;;;;;;;1.10;0.77;;;;;;;26.83;48.40;99881.41;5028863;28;20033;-86
2022/08/15 10:39:47;;;;;;;1.33;0.80;;;;;;;26.96;47.38;99874.75;5037009;28;20447;-83
2022/08/15 10:42:18;;;;;;;2.75;0.90;;;;;;;26.97;48.34;99876.34;5012760;28;20123;-86
2022/08/15 10:44:56;;;;;;;2.28;1.17;;;;;;;26.93;49.14;99865.38;5011543;28;20436;-85
2022/08/15 10:47:54;;;;;;;1.50;0.98;;;;;;;27.02;47.64;99869.13;5030210;28;20037;-86
2022/08/15 10:50:33;;;;;;;1.20;1.05;;;;;;;27.09;48.55;99858.97;5029263;28;20029;-85
2022/08/15 10:53:08;;;;;;;3.10;1.00;;;;;;;27.05;49.27;99854.44;5026297;28;20033;-89
2022/08/15 10:55:37;;;;;;;1.30;1.20;;;;;;;27.04;49.22;99853.63;5011021;28;20045;-90
2022/08/15 10:58:24;;;;;;;1.20;0.85;;;;;;;27.00;48.97;99851.75;5028357;28;20049;-91
2022/08/15 11:01:06;;;;;;;1.40;1.30;;;;;;;27.19;48.81;99852.03;5028942;28;20033;-84
2022/08/15 11:04:01;;;;;;;3.58;2.85;;;;;;;27.06;48.73;99848.81;5026810;28;20100;-87
2022/08/15 11:06:27;;;;;;;5.13;1.55;;;;;;;27.10;48.48;99838.41;5025889;28;20079;-87
2022/08/15 11:09:19;;;;;;;5.00;1.75;;;;;;;26.89;45.62;99836.78;5006617;28;20021;-84
2022/08/15 11:12:05;;;;;;;2.58;1.60;;;;;;;26.91;46.02;99832.78;5027190;28;20037;-87
2022/08/15 11:14:33;;;;;;;;;;;;;;;26.92;46.56;99836.25;5010847;28;20030;-84
2022/08/15 11:17:00;;;;;;;1.55;0.90;;;;;;;27.04;48.04;99826.91;5008907;28;20039;-85
2022/08/15 11:19:36;;;;;;;1.60;1.08;;;;;;;27.07;47.92;99821.03;5029122;28;20030;-89
2022/08/15 11:22:07;;;;;;;1.55;1.25;;;;;;;26.97;47.21;99817.53;5028618;28;20056;-87
2022/08/15 11:24:39;;;;;;;3.05;1.75;;;;;;;26.85;47.47;99819.66;5029035;28;20109;-86
2022/08/15 11:27:10;;;;;;;1.67;1.10;;;;;;;26.83;48.79;99821.81;5010993;28;20041;-85
2022/08/15 11:29:36;;;;;;;4.68;1.33;;;;;;;26.89;49.32;99816.19;5029251;28;20037;-86
2022/08/15 11:32:01;;;;;;;0.98;0.85;;;;;;;26.93;49.31;99808.44;5028886;28;20029;-89
2022/08/15 11:34:39;;;;;;;1.65;0.93;;;;;;;26.85;45.81;99809.78;5028821;28;20033;-89
2022/08/15 11:37:25;;;;;;;1.33;0.90;;;;;;;26.82;46.99;99804.97;5030630;28;20485;-90
2022/08/15 11:39:59;;;;;;;2.75;1.15;;;;;;;26.84;47.12;99807.38;5028447;28;20061;-85
2022/08/15 11:42:28;;;;;;;1.10;0.70;;;;;;;27.03;48.20;99800.44;5028567;28;20039;-89
2022/08/15 11:45:06;;;;;;;3.72;0.90;;;;;;;27.30;46.62;99805.50;5010873;28;20037;-88
2022/08/15 11:47:34;;;;;;;2.20;0.60;;;;;;;27.43;46.80;99807.59;5028702;28;20040;-88
2022/08/15 11:50:05;;;;;;;2.08;1.00;;;;;;;27.42;45.90;99809.47;5028752;28;20026;-86
2022/08/15 11:52:36;;;;;;;1.55;0.85;;;;;;;27.34;46.10;99807.34;5029004;28;20124;-90
2022/08/15 11:55:32;;;;;;;1.45;1.08;;;;;;;27.40;46.17;99795.56;5028738;28;20099;-89
2022/08/15 11:58:19;;;;;;;3.33;0.95;;;;;;;27.33;48.77;99799.59;5000070;28;20140;-87
2022/08/15 12:00:51;;;;;;;1.45;0.88;;;;;;;27.22;48.96;99798.81;5008329;28;20034;-86
2022/08/15 12:03:36;;;;;;;2.10;1.33;;;;;;;27.15;49.04;99792.94;5009035;28;20030;-86
2022/08/15 12:06:13;;;;;;;0.95;0.90;;;;;;;27.07;48.77;99796.94;5007542;28;20060;-86
2022/08/15 12:08:42;;;;;;;1.13;0.93;;;;;;;27.12;49.25;99792.69;5009197;28;20034;-85
2022/08/15 12:11:17;;;;;;;1.52;0.80;;;;;;;27.15;48.12;99790.25;5007057;28;20045;-87
2022/08/15 12:13:56;;;;;;;;;;;;;;;27.17;47.62;99790.00;5009319;28;20040;-92